Time;durP1;ratioP1;P1;durP2;ratioP2;P2;SDS_P1;SDS_P2;PMS_P1;PMS_P2;Temp;Humidity;BMP_temperature;BMP_pressure;BME280_temperature;BME280_humidity;BME280_pressure;Samples;Min_cycle;Max_cycle;Signal;HPM_P1;HPM_P2
2021/06/22 00:01:56;;;;;;;30.92;19.55;;;;;;;19.56;96.67;99198.77;1627012;86;21193;-70
2021/06/22 00:04:23;;;;;;;27.37;17.98;;;;;;;19.54;96.79;99196.38;1635226;86;21691;-70
2021/06/22 00:06:51;;;;;;;32.17;21.75;;;;;;;19.53;96.91;99200.34;1635645;86;20894;-71
2021/06/22 00:09:17;;;;;;;31.65;19.40;;;;;;;19.53;97.02;99195.36;1653561;86;20969;-71
2021/06/22 00:11:44;;;;;;;31.93;18.73;;;;;;;19.53;97.18;99193.97;1631828;86;21081;-70
2021/06/22 00:14:10;;;;;;;26.57;16.60;;;;;;;19.52;97.17;99195.95;1623958;86;21000;-70
2021/06/22 00:16:38;;;;;;;28.98;15.65;;;;;;;19.50;97.21;99195.51;1631930;86;21484;-70
2021/06/22 00:19:04;;;;;;;30.15;18.80;;;;;;;19.50;97.34;99201.67;1632194;86;21104;-70
2021/06/22 00:21:30;;;;;;;28.32;18.95;;;;;;;19.49;97.32;99193.91;1627647;86;20973;-70
2021/06/22 00:23:57;;;;;;;37.38;20.68;;;;;;;19.48;97.29;99185.34;1627212;85;21081;-71
2021/06/22 00:26:23;;;;;;;26.27;15.40;;;;;;;19.48;97.24;99177.00;1644610;86;21077;-70
2021/06/22 00:28:50;;;;;;;26.42;17.42;;;;;;;19.47;97.24;99182.36;1628100;86;21485;-70
2021/06/22 00:31:18;;;;;;;23.95;14.98;;;;;;;19.45;97.28;99176.38;1632820;86;21122;-71
2021/06/22 00:33:46;;;;;;;25.17;15.23;;;;;;;19.42;97.36;99177.14;1647059;86;21516;-71
2021/06/22 00:36:12;;;;;;;24.27;13.50;;;;;;;19.41;97.55;99179.71;1632619;86;21190;-70
2021/06/22 00:38:39;;;;;;;21.85;13.88;;;;;;;19.38;97.86;99181.28;1631084;85;21588;-70
2021/06/22 00:41:06;;;;;;;28.75;12.55;;;;;;;19.38;97.92;99191.61;1630631;86;21072;-70
2021/06/22 00:43:38;;;;;;;18.48;11.12;;;;;;;19.34;97.80;99194.95;1623514;86;21610;-70
2021/06/22 00:46:06;;;;;;;18.92;10.08;;;;;;;19.33;97.85;99200.31;1643896;86;21081;-71
2021/06/22 00:48:33;;;;;;;19.50;10.13;;;;;;;19.34;98.05;99201.91;1643556;86;20950;-70
2021/06/22 00:51:01;;;;;;;15.35;8.88;;;;;;;19.35;98.26;99198.75;1631759;86;21053;-70
2021/06/22 00:53:28;;;;;;;18.90;9.20;;;;;;;19.35;98.45;99197.94;1611748;85;20957;-70
2021/06/22 00:55:57;;;;;;;16.15;8.60;;;;;;;19.35;98.42;99197.94;1643957;86;22531;-70
2021/06/22 00:58:26;;;;;;;17.95;8.75;;;;;;;19.34;98.35;99195.75;1607289;86;21091;-70
2021/06/22 01:00:55;;;;;;;15.60;8.90;;;;;;;19.33;98.24;99189.18;1631264;85;20945;-70
2021/06/22 01:03:22;;;;;;;19.45;8.38;;;;;;;19.30;98.14;99190.74;1623884;86;21044;-70
2021/06/22 01:05:50;;;;;;;21.50;9.65;;;;;;;19.28;98.25;99189.52;1630225;86;21041;-70
2021/06/22 01:08:17;;;;;;;17.00;9.65;;;;;;;19.27;98.54;99185.14;1629115;85;21122;-70
2021/06/22 01:10:44;;;;;;;20.35;9.00;;;;;;;19.27;98.97;99184.55;1629645;86;20969;-70
2021/06/22 01:13:10;;;;;;;18.77;8.28;;;;;;;19.29;99.55;99187.75;1605225;86;21053;-70
2021/06/22 01:15:37;;;;;;;13.72;8.20;;;;;;;19.32;99.65;99188.97;1641214;86;21517;-70
2021/06/22 01:18:05;;;;;;;14.70;7.97;;;;;;;19.31;99.28;99179.81;1648579;86;20950;-71
2021/06/22 01:20:36;;;;;;;24.10;9.40;;;;;;;19.31;98.89;99190.15;1624398;86;21562;-70
2021/06/22 01:23:05;;;;;;;24.82;9.18;;;;;;;19.27;98.62;99181.77;1634934;86;21006;-70
2021/06/22 01:25:33;;;;;;;14.28;8.30;;;;;;;19.26;98.58;99182.15;1630214;85;20985;-71
2021/06/22 01:28:00;;;;;;;22.27;8.53;;;;;;;19.23;98.42;99171.19;1628430;86;21028;-71
2021/06/22 01:30:29;;;;;;;20.77;10.13;;;;;;;19.19;98.40;99169.55;1633386;86;21569;-71
2021/06/22 01:33:00;;;;;;;23.00;10.78;;;;;;;19.16;98.67;99173.90;1645536;86;21183;-70
2021/06/22 01:35:28;;;;;;;19.70;9.80;;;;;;;19.16;99.18;99168.93;1630444;85;21147;-70
2021/06/22 01:38:01;;;;;;;25.95;10.65;;;;;;;19.14;99.43;99162.35;1627801;86;21088;-70
2021/06/22 01:40:29;;;;;;;39.48;10.78;;;;;;;19.13;99.52;99156.58;1635986;86;21099;-70
2021/06/22 01:42:58;;;;;;;23.40;10.20;;;;;;;19.11;99.49;99151.40;1641943;86;20977;-70
2021/06/22 01:45:25;;;;;;;23.62;9.18;;;;;;;19.08;99.46;99151.36;1656677;86;21143;-71
2021/06/22 01:47:54;;;;;;;23.25;9.40;;;;;;;19.05;99.49;99159.91;1636501;85;21521;-70
2021/06/22 01:50:20;;;;;;;20.35;8.65;;;;;;;19.00;99.37;99152.50;1637865;86;21075;-70
2021/06/22 01:52:49;;;;;;;28.75;9.20;;;;;;;18.98;99.57;99154.27;1627029;86;20937;-71
2021/06/22 01:55:35;;;;;;;31.95;9.68;;;;;;;18.96;99.68;99148.88;1627573;86;21065;-70
2021/06/22 01:58:08;;;;;;;30.92;8.90;;;;;;;18.94;99.72;99145.68;1629874;85;21138;-70
2021/06/22 02:00:52;;;;;;;19.48;8.23;;;;;;;18.94;100.00;99140.91;1650002;86;20929;-70
2021/06/22 02:03:20;;;;;;;29.42;8.18;;;;;;;18.96;100.00;99146.09;1628023;86;21065;-70
2021/06/22 02:05:48;;;;;;;17.30;8.18;;;;;;;18.95;100.00;99147.28;1609805;86;21103;-70
2021/06/22 02:08:16;;;;;;;16.30;8.18;;;;;;;18.94;100.00;99140.91;1639510;86;20963;-70
2021/06/22 02:10:43;;;;;;;19.30;8.13;;;;;;;18.92;100.00;99148.84;1638014;86;21973;-70
2021/06/22 02:13:11;;;;;;;22.13;8.70;;;;;;;18.91;100.00;99150.02;1633567;86;21622;-70
2021/06/22 02:15:42;;;;;;;33.67;10.20;;;;;;;18.91;100.00;99150.02;1631384;86;21516;-70
2021/06/22 02:18:09;;;;;;;26.90;10.28;;;;;;;18.96;100.00;99144.11;1635543;86;20905;-70
2021/06/22 02:20:37;;;;;;;28.47;10.32;;;;;;;19.06;100.00;99146.18;1636789;86;21036;-70
2021/06/22 02:23:05;;;;;;;29.72;10.65;;;;;;;19.17;100.00;99145.48;1639132;86;21202;-70
2021/06/22 02:25:33;;;;;;;31.65;10.03;;;;;;;19.25;100.00;99140.20;1636828;86;21144;-70
2021/06/22 02:28:11;;;;;;;34.58;10.88;;;;;;;19.30;100.00;99135.67;1640855;86;21574;-70
2021/06/22 02:30:39;;;;;;;48.98;14.55;;;;;;;19.38;100.00;99127.59;1632232;85;20925;-70
2021/06/22 02:33:06;;;;;;;43.55;12.93;;;;;;;19.45;100.00;99125.67;1633904;86;20898;-70
2021/06/22 02:35:34;;;;;;;42.03;13.08;;;;;;;19.54;100.00;99125.97;1626287;86;21176;-70
2021/06/22 02:38:02;;;;;;;45.12;13.08;;;;;;;19.63;100.00;99124.46;1619755;86;20997;-69
2021/06/22 02:40:29;;;;;;;51.83;14.87;;;;;;;19.70;100.00;99109.76;1633921;86;20941;-69
2021/06/22 02:42:58;;;;;;;54.53;13.62;;;;;;;19.76;100.00;99106.81;1643621;86;21005;-70
2021/06/22 02:45:25;;;;;;;40.63;12.05;;;;;;;19.82;100.00;99105.27;1635766;86;20878;-70
2021/06/22 02:47:53;;;;;;;44.60;13.35;;;;;;;19.86;100.00;99110.86;1643489;86;20986;-70
2021/06/22 02:50:21;;;;;;;57.75;13.45;;;;;;;19.91;100.00;99104.92;1643536;86;21551;-70
2021/06/22 02:52:49;;;;;;;61.83;14.30;;;;;;;19.95;100.00;99097.39;1630827;85;21002;-70
2021/06/22 02:55:18;;;;;;;65.45;14.75;;;;;;;19.98;100.00;99096.02;1636705;86;21100;-70
2021/06/22 02:57:53;;;;;;;71.28;15.48;;;;;;;20.04;100.00;99099.23;1648811;86;20890;-70
2021/06/22 03:00:24;;;;;;;68.95;15.32;;;;;;;20.09;100.00;99101.66;1629952;86;21474;-70
2021/06/22 03:02:52;;;;;;;75.50;15.75;;;;;;;20.13;100.00;99103.06;1629842;86;20953;-69
2021/06/22 03:05:19;;;;;;;87.17;17.23;;;;;;;20.19;100.00;99115.44;1630061;86;20878;-69
2021/06/22 03:07:46;;;;;;;68.62;15.60;;;;;;;20.23;100.00;99125.38;1636007;86;20946;-69
2021/06/22 03:10:16;;;;;;;68.17;16.97;;;;;;;20.27;100.00;99128.19;1633788;86;21029;-69
2021/06/22 03:12:42;;;;;;;59.20;15.35;;;;;;;20.34;100.00;99133.20;1636275;86;21145;-69
2021/06/22 03:15:29;;;;;;;93.47;17.05;;;;;;;20.41;100.00;99137.45;1626075;86;20917;-69
2021/06/22 03:17:56;;;;;;;80.32;15.72;;;;;;;20.48;100.00;99144.25;1636541;86;21030;-70
2021/06/22 03:20:24;;;;;;;78.92;14.30;;;;;;;20.54;100.00;99151.85;1628595;86;21585;-70
2021/06/22 03:22:53;;;;;;;72.35;13.95;;;;;;;20.58;100.00;99155.45;1632343;85;21026;-71
2021/06/22 03:25:20;;;;;;;108.63;15.30;;;;;;;20.64;100.00;99156.67;1636712;86;21183;-70
2021/06/22 03:27:51;;;;;;;93.67;15.85;;;;;;;20.70;100.00;99156.50;1641583;86;21575;-70
2021/06/22 03:30:36;;;;;;;88.40;15.83;;;;;;;20.76;100.00;99156.33;1627962;85;21100;-70
2021/06/22 03:33:02;;;;;;;91.12;15.80;;;;;;;20.86;100.00;99164.50;1637678;85;21087;-70
2021/06/22 03:35:29;;;;;;;102.80;16.07;;;;;;;20.94;100.00;99163.92;1631635;86;20999;-70
2021/06/22 03:37:56;;;;;;;100.15;14.35;;;;;;;20.99;99.81;99172.71;1640092;86;21599;-70
2021/06/22 03:40:23;;;;;;;113.20;16.20;;;;;;;21.06;99.46;99172.73;1627421;86;21068;-70
2021/06/22 03:42:50;;;;;;;110.35;16.07;;;;;;;21.13;98.80;99171.15;1629360;86;20930;-71
2021/06/22 03:45:17;;;;;;;83.40;14.13;;;;;;;21.18;97.63;99170.77;1636384;86;21513;-70
2021/06/22 03:47:47;;;;;;;98.22;15.23;;;;;;;21.25;97.07;99170.81;1631266;86;20993;-69
2021/06/22 03:50:14;;;;;;;102.32;15.20;;;;;;;21.30;96.54;99167.63;1632053;86;21161;-69
2021/06/22 03:52:40;;;;;;;99.17;14.38;;;;;;;21.37;96.46;99167.01;1623839;86;21123;-69
2021/06/22 03:55:28;;;;;;;100.60;14.55;;;;;;;21.44;96.07;99157.84;1628447;86;21013;-70
2021/06/22 03:57:59;;;;;;;103.20;15.30;;;;;;;21.51;95.22;99150.87;1643510;86;21793;-70
2021/06/22 04:00:28;;;;;;;102.07;15.58;;;;;;;21.58;94.11;99148.67;1601771;86;20985;-69
2021/06/22 04:02:59;;;;;;;99.75;15.63;;;;;;;21.65;93.31;99148.08;1629992;85;22001;-70
2021/06/22 04:05:27;;;;;;;95.20;13.68;;;;;;;21.70;92.53;99145.48;1628822;86;20890;-70
2021/06/22 04:07:57;;;;;;;111.83;15.48;;;;;;;21.77;91.81;99148.88;1633668;85;21496;-69
2021/06/22 04:10:24;;;;;;;100.33;13.78;;;;;;;21.84;90.95;99152.46;1636405;86;21135;-69
2021/06/22 04:12:53;;;;;;;96.42;14.47;;;;;;;21.91;90.74;99151.05;1645584;86;21481;-70
2021/06/22 04:15:19;;;;;;;102.02;13.95;;;;;;;21.99;90.18;99153.20;1626254;86;21024;-72
2021/06/22 04:17:46;;;;;;;99.32;14.28;;;;;;;22.08;89.92;99157.81;1631291;86;21008;-71
2021/06/22 04:20:14;;;;;;;95.00;13.08;;;;;;;22.17;89.07;99162.39;1648418;86;20966;-73
2021/06/22 04:22:41;;;;;;;104.55;14.33;;;;;;;22.26;88.70;99161.38;1642426;86;21000;-72
2021/06/22 04:25:10;;;;;;;80.65;13.50;;;;;;;22.34;87.72;99167.14;1641911;86;20989;-72
2021/06/22 04:27:37;;;;;;;91.55;13.13;;;;;;;22.40;87.64;99172.52;1630008;86;21120;-68
2021/06/22 04:30:09;;;;;;;80.00;13.03;;;;;;;22.45;85.71;99167.12;1645043;86;21032;-72
2021/06/22 04:32:37;;;;;;;85.47;13.03;;;;;;;22.49;84.83;99169.91;1650151;85;21017;-75
2021/06/22 04:35:04;;;;;;;85.42;13.85;;;;;;;22.51;84.73;99166.10;1639211;85;21018;-74
2021/06/22 04:37:31;;;;;;;81.17;12.18;;;;;;;22.56;84.35;99160.86;1636437;86;21090;-75
2021/06/22 04:39:57;;;;;;;81.30;12.00;;;;;;;22.63;84.12;99154.44;1645103;86;21739;-74
2021/06/22 04:42:24;;;;;;;84.65;12.10;;;;;;;22.67;83.23;99158.81;1646516;86;21575;-73
2021/06/22 04:44:50;;;;;;;74.58;11.68;;;;;;;22.72;82.39;99154.80;1663908;85;20968;-73
2021/06/22 04:47:17;;;;;;;91.30;12.53;;;;;;;22.80;82.78;99144.40;1654084;85;21068;-74
2021/06/22 04:49:43;;;;;;;95.03;12.60;;;;;;;22.88;82.62;99145.36;1660769;85;21064;-74
2021/06/22 04:52:11;;;;;;;94.40;11.78;;;;;;;23.00;83.01;99142.09;1640292;86;21111;-73
2021/06/22 04:54:39;;;;;;;78.97;11.75;;;;;;;23.12;81.95;99149.80;1636692;86;21565;-73
2021/06/22 04:57:06;;;;;;;76.42;11.00;;;;;;;23.19;80.47;99143.55;1650519;86;20992;-74
2021/06/22 04:59:36;;;;;;;80.28;10.13;;;;;;;23.27;79.76;99149.30;1646051;86;21093;-74
2021/06/22 05:02:03;;;;;;;74.55;11.57;;;;;;;23.32;79.26;99143.86;1654629;86;21039;-72
2021/06/22 05:04:31;;;;;;;60.52;10.30;;;;;;;23.39;78.56;99146.61;1646686;86;21197;-75
2021/06/22 05:06:58;;;;;;;76.07;9.90;;;;;;;23.44;78.07;99152.38;1651891;86;21050;-74
2021/06/22 05:09:25;;;;;;;75.20;11.85;;;;;;;23.53;78.00;99147.94;1650894;86;20897;-73
2021/06/22 05:11:52;;;;;;;70.60;10.30;;;;;;;23.63;77.04;99144.86;1643973;86;21187;-74
2021/06/22 05:14:19;;;;;;;58.08;10.18;;;;;;;23.71;77.17;99145.76;1644591;86;20971;-73
2021/06/22 05:16:48;;;;;;;66.02;10.65;;;;;;;23.83;76.40;99140.86;1630814;86;21418;-72
2021/06/22 05:19:14;;;;;;;87.67;10.82;;;;;;;23.92;75.16;99139.77;1641352;85;21404;-72
2021/06/22 05:21:40;;;;;;;72.70;9.75;;;;;;;23.99;75.20;99148.11;1647113;85;21502;-72
2021/06/22 05:24:07;;;;;;;75.00;10.95;;;;;;;24.08;74.26;99149.03;1635521;86;21011;-73
2021/06/22 05:26:33;;;;;;;55.98;8.45;;;;;;;24.17;73.42;99145.92;1604996;88;21092;-73
2021/06/22 05:29:00;;;;;;;46.10;8.05;;;;;;;24.29;73.01;99148.20;1594831;88;21594;-73
2021/06/22 05:31:27;;;;;;;60.23;10.13;;;;;;;24.38;71.22;99148.31;1595422;88;21043;-74
2021/06/22 05:33:53;;;;;;;64.05;9.08;;;;;;;24.43;70.67;99152.06;1604771;88;21054;-74
2021/06/22 05:36:19;;;;;;;51.83;9.63;;;;;;;24.49;71.04;99154.59;1614283;88;21450;-72
2021/06/22 05:38:46;;;;;;;61.75;9.58;;;;;;;24.58;71.27;99158.48;1597885;87;21467;-73
2021/06/22 05:41:13;;;;;;;56.73;9.18;;;;;;;24.66;70.32;99161.40;1615357;88;21559;-73
2021/06/22 05:43:40;;;;;;;49.18;8.88;;;;;;;24.76;70.53;99158.88;1597565;89;20888;-72
2021/06/22 05:46:06;;;;;;;49.93;8.55;;;;;;;24.86;70.53;99150.29;1590096;89;21028;-72
2021/06/22 05:48:32;;;;;;;55.65;8.58;;;;;;;24.97;69.98;99152.38;1593705;89;21073;-73
2021/06/22 05:50:59;;;;;;;54.42;8.75;;;;;;;25.08;68.15;99162.06;1596990;89;21039;-73
2021/06/22 05:53:25;;;;;;;43.28;7.83;;;;;;;25.18;68.16;99158.91;1593988;89;21114;-74
2021/06/22 05:55:53;;;;;;;49.93;6.97;;;;;;;25.30;68.32;99155.52;1593036;89;21031;-73
2021/06/22 05:58:19;;;;;;;40.40;6.75;;;;;;;25.44;67.80;99157.30;1590873;89;20964;-73
2021/06/22 06:00:45;;;;;;;46.98;8.25;;;;;;;25.57;67.61;99150.66;1602791;88;21065;-73
2021/06/22 06:03:13;;;;;;;54.45;7.70;;;;;;;25.70;66.31;99151.48;1592150;89;21576;-73
2021/06/22 06:05:39;;;;;;;38.92;6.72;;;;;;;25.76;65.42;99149.17;1591968;88;21122;-73
2021/06/22 06:08:06;;;;;;;58.90;7.83;;;;;;;25.82;63.43;99150.27;1583853;89;20884;-74
2021/06/22 06:10:34;;;;;;;37.23;6.85;;;;;;;25.87;63.24;99144.77;1607811;88;21003;-74
2021/06/22 06:13:00;;;;;;;36.88;6.80;;;;;;;25.91;62.21;99139.87;1603191;88;21586;-72
2021/06/22 06:15:26;;;;;;;32.10;7.20;;;;;;;25.96;62.78;99139.38;1598160;88;21031;-73
2021/06/22 06:17:53;;;;;;;35.70;6.37;;;;;;;26.02;62.54;99131.22;1607890;89;21831;-73
2021/06/22 06:20:19;;;;;;;36.23;6.55;;;;;;;26.11;62.18;99128.03;1615709;87;20936;-73
2021/06/22 06:22:48;;;;;;;32.80;5.55;;;;;;;26.18;62.28;99113.03;1605650;88;20985;-75
2021/06/22 06:25:15;;;;;;;42.90;6.42;;;;;;;26.28;60.41;99112.83;1600096;89;20959;-73
2021/06/22 06:27:56;;;;;;;36.65;5.75;;;;;;;26.35;59.63;99105.50;1595388;89;21540;-74
2021/06/22 06:30:27;;;;;;;35.55;6.45;;;;;;;26.39;59.80;99107.63;1608297;88;21161;-74
2021/06/22 06:32:53;;;;;;;39.27;6.65;;;;;;;26.50;60.44;99098.36;1602285;89;20955;-74
2021/06/22 06:35:20;;;;;;;41.60;6.90;;;;;;;26.59;60.88;99099.33;1596040;88;21465;-74
2021/06/22 06:37:47;;;;;;;42.58;7.20;;;;;;;26.69;60.61;99101.73;1597046;88;20897;-74
2021/06/22 06:40:15;;;;;;;44.30;7.15;;;;;;;26.81;59.56;99103.09;1599673;88;21068;-74
2021/06/22 06:42:41;;;;;;;43.85;7.62;;;;;;;26.89;58.78;99105.31;1602801;88;21638;-74
2021/06/22 06:45:09;;;;;;;38.73;6.60;;;;;;;26.91;58.29;99109.90;1603893;89;20920;-75
2021/06/22 06:47:36;;;;;;;36.75;5.83;;;;;;;26.93;57.80;99113.07;1606316;88;21021;-73
2021/06/22 06:50:04;;;;;;;37.05;5.35;;;;;;;26.99;57.85;99111.97;1601212;88;20929;-74
2021/06/22 06:52:30;;;;;;;35.48;6.60;;;;;;;27.03;56.40;99111.28;1596803;89;20909;-74
2021/06/22 06:54:57;;;;;;;30.55;5.15;;;;;;;27.07;55.40;99110.58;1601010;88;21197;-74
2021/06/22 06:57:24;;;;;;;42.48;5.50;;;;;;;27.11;55.22;99115.52;1597815;88;20975;-75
2021/06/22 06:59:51;;;;;;;33.98;6.78;;;;;;;27.16;55.54;99117.78;1593891;89;20992;-74
2021/06/22 07:02:17;;;;;;;26.35;5.17;;;;;;;27.23;54.95;99115.42;1596624;89;20933;-74
2021/06/22 07:04:44;;;;;;;35.63;6.10;;;;;;;27.25;53.71;99116.56;1597198;88;21082;-74
2021/06/22 07:07:10;;;;;;;34.65;5.20;;;;;;;27.29;53.53;99116.48;1596615;88;21795;-74
2021/06/22 07:09:36;;;;;;;37.05;6.37;;;;;;;27.34;53.42;99123.00;1607356;88;21185;-74
2021/06/22 07:12:04;;;;;;;27.22;5.12;;;;;;;27.41;54.29;99124.86;1600030;88;20981;-74
2021/06/22 07:14:31;;;;;;;35.55;5.08;;;;;;;27.55;54.45;99117.46;1590657;90;20909;-73
2021/06/22 07:16:57;;;;;;;34.15;6.03;;;;;;;27.72;55.06;99126.73;1592755;89;20890;-74
2021/06/22 07:19:23;;;;;;;40.50;6.03;;;;;;;27.85;54.04;99121.94;1611251;88;21524;-73
2021/06/22 07:21:50;;;;;;;30.02;5.42;;;;;;;27.95;53.21;99130.74;1599738;89;20921;-74
2021/06/22 07:24:17;;;;;;;42.33;7.00;;;;;;;28.00;51.85;99135.05;1597856;88;21566;-73
2021/06/22 07:26:44;;;;;;;33.30;5.70;;;;;;;27.97;51.68;99130.30;1602110;89;21024;-72
2021/06/22 07:29:11;;;;;;;32.25;5.60;;;;;;;27.86;52.10;99144.68;1578258;89;21070;-73
2021/06/22 07:31:37;;;;;;;21.60;4.87;;;;;;;27.72;52.41;99156.34;1597367;88;21132;-75
2021/06/22 07:34:04;;;;;;;27.75;5.65;;;;;;;27.56;53.03;99163.54;1590321;89;20952;-75
2021/06/22 07:36:30;;;;;;;32.63;6.35;;;;;;;27.55;54.81;99169.00;1593680;89;21457;-74
2021/06/22 07:38:56;;;;;;;33.13;5.42;;;;;;;27.72;54.67;99158.55;1590336;90;21539;-71
2021/06/22 07:41:24;;;;;;;31.07;5.35;;;;;;;27.91;53.49;99153.40;1597635;88;21055;-71
2021/06/22 07:43:51;;;;;;;26.90;4.87;;;;;;;28.08;52.77;99148.53;1617442;87;21297;-78
2021/06/22 07:46:18;;;;;;;34.45;6.65;;;;;;;28.21;52.62;99154.23;1653441;85;20972;-73
2021/06/22 07:48:44;;;;;;;24.70;5.50;;;;;;;28.31;51.85;99172.15;1641050;85;21474;-76
2021/06/22 07:51:10;;;;;;;33.58;5.08;;;;;;;28.42;52.52;99162.73;1631511;86;20976;-75
2021/06/22 07:53:37;;;;;;;30.92;4.83;;;;;;;28.55;50.86;99160.76;1602047;89;21054;-74
2021/06/22 07:56:05;;;;;;;31.60;5.40;;;;;;;28.62;50.73;99152.70;1616078;87;21204;-78
2021/06/22 07:58:31;;;;;;;30.23;4.70;;;;;;;28.65;51.02;99146.95;1628808;87;21013;-76
2021/06/22 08:00:59;;;;;;;25.25;4.30;;;;;;;28.68;50.30;99143.23;1629071;87;21489;-73
2021/06/22 08:03:27;;;;;;;36.45;4.50;;;;;;;28.64;48.76;99131.25;1646294;86;20971;-76
2021/06/22 08:05:54;;;;;;;30.32;5.15;;;;;;;28.55;49.87;99126.25;1641745;85;21582;-73
2021/06/22 08:08:22;;;;;;;30.68;4.67;;;;;;;28.59;50.83;99126.94;1660408;86;21126;-71
2021/06/22 08:10:52;;;;;;;25.62;4.80;;;;;;;28.74;51.23;99122.29;1644647;85;21018;-74
2021/06/22 08:13:19;;;;;;;27.62;6.03;;;;;;;28.88;51.27;99131.78;1658044;86;21007;-72
2021/06/22 08:15:48;;;;;;;35.38;5.08;;;;;;;29.03;51.29;99127.88;1645303;85;21125;-75
2021/06/22 08:18:14;;;;;;;28.55;5.28;;;;;;;29.16;49.82;99132.91;1644428;86;21066;-73
2021/06/22 08:20:40;;;;;;;23.00;5.08;;;;;;;29.13;48.13;99138.05;1643072;85;21120;-71
2021/06/22 08:23:07;;;;;;;27.93;4.97;;;;;;;28.88;49.01;99136.78;1643636;85;21621;-73
2021/06/22 08:25:34;;;;;;;42.35;5.50;;;;;;;28.64;49.32;99134.07;1646304;85;21051;-73
2021/06/22 08:28:00;;;;;;;17.75;4.12;;;;;;;28.39;51.08;99141.05;1660676;85;21063;-75
2021/06/22 08:30:27;;;;;;;25.48;4.50;;;;;;;28.15;51.74;99135.64;1643687;86;21064;-74
2021/06/22 08:32:54;;;;;;;40.30;5.30;;;;;;;27.93;52.00;99134.63;1644328;86;21578;-72
2021/06/22 08:35:21;;;;;;;23.42;4.67;;;;;;;27.72;52.67;99142.25;1667939;84;20990;-76
2021/06/22 08:37:48;;;;;;;36.53;5.47;;;;;;;27.50;53.13;99137.11;1658425;83;21115;-72
2021/06/22 08:40:15;;;;;;;36.35;5.55;;;;;;;27.28;52.85;99131.80;1656243;84;21018;-76
2021/06/22 08:42:41;;;;;;;29.72;5.67;;;;;;;27.12;53.77;99125.55;1639874;84;21071;-75
2021/06/22 08:45:13;;;;;;;23.12;4.60;;;;;;;27.31;56.71;99123.87;1652339;85;21243;-77
2021/06/22 08:47:39;;;;;;;28.73;5.08;;;;;;;27.77;55.69;99126.17;1592711;89;21074;-75
2021/06/22 08:50:07;;;;;;;21.82;4.65;;;;;;;28.32;53.34;99120.08;1656794;84;20958;-73
2021/06/22 08:52:35;;;;;;;18.30;5.03;;;;;;;28.82;52.72;99116.63;1584548;88;21022;-72
2021/06/22 08:55:05;;;;;;;52.50;14.83;;;;;;;29.31;51.90;99111.44;1617640;87;21110;-73
2021/06/22 08:57:33;;;;;;;46.50;6.42;;;;;;;29.74;50.47;99107.19;1605996;88;21151;-74
2021/06/22 09:00:00;;;;;;;26.50;5.28;;;;;;;30.03;48.02;99109.23;1630663;87;21436;-74
2021/06/22 09:02:30;;;;;;;40.83;5.33;;;;;;;30.27;48.96;99109.56;1621861;87;21039;-74
2021/06/22 09:04:58;;;;;;;38.73;5.37;;;;;;;30.60;48.79;99103.54;1636935;87;21075;-73
2021/06/22 09:07:48;;;;;;;39.25;6.53;;;;;;;30.95;47.35;99111.27;1629726;86;21008;-73
2021/06/22 09:10:30;;;;;;;50.85;6.95;;;;;;;31.06;44.12;99111.64;1622669;87;21161;-72
2021/06/22 09:12:59;;;;;;;52.40;7.78;;;;;;;31.05;45.01;99108.65;1624931;87;21427;-73
2021/06/22 09:15:29;;;;;;;41.60;6.95;;;;;;;31.20;44.70;99112.49;1629576;87;21509;-72
2021/06/22 09:17:57;;;;;;;48.48;9.00;;;;;;;31.34;44.32;99105.45;1626990;87;21520;-73
2021/06/22 09:20:42;;;;;;;55.00;7.10;;;;;;;31.49;44.22;99105.83;1635048;87;21015;-74
2021/06/22 09:23:17;;;;;;;52.95;7.17;;;;;;;31.63;44.13;99103.02;1633832;86;21205;-75
2021/06/22 09:25:46;;;;;;;54.53;7.10;;;;;;;31.68;42.76;99108.11;1653377;86;20914;-74
2021/06/22 09:28:15;;;;;;;69.50;9.15;;;;;;;31.62;44.04;99105.70;1654961;86;21041;-74
2021/06/22 09:30:56;;;;;;;55.90;9.20;;;;;;;31.72;41.67;99105.12;1647820;86;21711;-75
2021/06/22 09:33:40;;;;;;;59.80;9.15;;;;;;;31.79;42.25;99095.64;1631030;86;21132;-74
2021/06/22 09:36:16;;;;;;;42.33;8.03;;;;;;;31.82;42.88;99092.50;1660701;85;21168;-74
2021/06/22 09:38:55;;;;;;;58.10;8.23;;;;;;;31.93;43.25;99097.08;1630135;86;20933;-74
2021/06/22 09:41:30;;;;;;;74.72;10.63;;;;;;;32.03;43.57;99100.09;1638617;86;21610;-74
2021/06/22 09:44:05;;;;;;;75.15;10.50;;;;;;;32.12;41.75;99106.41;1604282;89;20980;-74
2021/06/22 09:46:38;;;;;;;84.30;11.80;;;;;;;32.16;41.73;99108.45;1604309;89;21061;-75
2021/06/22 09:49:08;;;;;;;67.82;9.78;;;;;;;32.18;41.33;99103.88;1604231;89;21514;-75
2021/06/22 09:51:40;;;;;;;135.48;24.75;;;;;;;32.20;39.83;99096.31;1604145;89;21531;-74
2021/06/22 09:54:15;;;;;;;83.60;11.93;;;;;;;32.15;41.49;99091.26;1605423;89;20924;-74
2021/06/22 09:57:08;;;;;;;80.25;11.80;;;;;;;32.24;40.33;99098.39;1605742;89;21503;-75
2021/06/22 09:59:53;;;;;;;;;;;;;;;32.32;39.18;99089.70;1607260;89;20952;-75
2021/06/22 10:02:25;;;;;;;92.53;12.88;;;;;;;32.36;39.84;99096.61;1601079;89;21172;-75
2021/06/22 10:04:53;;;;;;;;;;;;;;;32.42;39.45;99085.56;1606236;89;20920;-76
2021/06/22 10:07:23;;;;;;;95.10;13.60;;;;;;;32.48;39.65;99097.08;1600030;88;20189;-76
2021/06/22 10:09:56;;;;;;;117.53;15.43;;;;;;;32.59;39.47;99093.74;1594401;89;21052;-75
2021/06/22 10:12:26;;;;;;;141.82;17.12;;;;;;;32.54;36.02;99093.75;1604003;89;21100;-75
2021/06/22 10:14:54;;;;;;;121.37;18.62;;;;;;;32.46;36.59;99108.13;1607093;88;21815;-75
2021/06/22 10:17:24;;;;;;;104.17;14.87;;;;;;;32.37;37.23;99109.55;1602243;89;20930;-76
2021/06/22 10:19:54;;;;;;;116.35;15.75;;;;;;;32.34;38.05;99110.53;1637292;86;21127;-75
2021/06/22 10:22:23;;;;;;;109.60;14.13;;;;;;;32.41;38.57;99112.39;1645383;86;20947;-74
2021/06/22 10:24:50;;;;;;;105.27;14.83;;;;;;;32.50;37.59;99111.59;1643370;86;21035;-76
2021/06/22 10:27:19;;;;;;;89.05;14.53;;;;;;;32.62;39.86;99104.95;1658113;84;21996;-75
2021/06/22 10:29:53;;;;;;;108.27;15.80;;;;;;;32.78;38.66;99101.78;1674766;84;20978;-75
2021/06/22 10:32:17;;;;;;;120.08;16.82;;;;;;;32.99;38.49;99104.86;1650948;85;20983;-76
2021/06/22 10:34:45;;;;;;;115.05;18.98;;;;;;;33.05;35.92;99108.63;1646652;85;21009;-76
2021/06/22 10:37:57;;;;;;;141.47;19.23;;;;;;;32.99;34.96;99102.80;1691335;84;21108;-76
2021/06/22 10:40:27;;;;;;;121.42;16.62;;;;;;;32.79;34.79;99099.09;1657691;85;20995;-76
2021/06/22 10:43:06;;;;;;;129.42;18.32;;;;;;;32.54;36.13;99098.64;1672804;84;21023;-75
2021/06/22 10:45:30;;;;;;;114.42;15.70;;;;;;;32.49;36.68;99105.12;1677061;84;20938;-75
2021/06/22 10:47:59;;;;;;;149.95;18.73;;;;;;;32.65;37.21;99100.36;1680753;84;21502;-75
2021/06/22 10:50:30;;;;;;;129.15;18.52;;;;;;;32.76;37.74;99104.31;1626184;86;20962;-76
2021/06/22 10:53:08;;;;;;;104.43;17.98;;;;;;;32.77;36.56;99103.05;1634137;87;21790;-76
2021/06/22 10:55:48;;;;;;;134.18;18.87;;;;;;;32.79;37.01;99103.36;1641655;86;20959;-76
2021/06/22 10:58:14;;;;;;;118.82;15.93;;;;;;;32.78;37.00;99090.41;1614564;87;21022;-76
2021/06/22 11:00:51;;;;;;;118.77;17.17;;;;;;;32.85;38.06;99092.13;1637320;87;21011;-75
2021/06/22 11:03:31;;;;;;;112.85;17.00;;;;;;;32.91;35.93;99083.75;1630078;87;20916;-75
2021/06/22 11:06:17;;;;;;;124.95;18.87;;;;;;;32.90;37.15;99087.86;1675305;84;20867;-76
2021/06/22 11:08:45;;;;;;;129.23;17.20;;;;;;;32.92;37.55;99086.75;1664005;84;20996;-75
2021/06/22 11:11:16;;;;;;;128.32;17.73;;;;;;;32.85;37.03;99088.50;1663406;84;21050;-76
2021/06/22 11:13:53;;;;;;;148.30;18.82;;;;;;;32.77;38.08;99084.58;1671451;84;21034;-75
2021/06/22 11:16:25;;;;;;;135.70;16.95;;;;;;;32.73;36.47;99092.45;1633000;86;21033;-76
2021/06/22 11:19:01;;;;;;;98.72;14.65;;;;;;;32.78;37.23;99100.36;1609061;87;21236;-76
2021/06/22 11:21:51;;;;;;;127.90;17.55;;;;;;;32.97;37.16;99089.70;1646322;86;20932;-76
2021/06/22 11:24:31;;;;;;;146.32;17.65;;;;;;;33.07;36.68;99094.72;1621423;87;20888;-76
2021/06/22 11:27:04;;;;;;;123.75;18.55;;;;;;;33.02;36.54;99089.68;1632257;87;20983;-76
2021/06/22 11:29:42;;;;;;;108.52;17.50;;;;;;;32.92;37.13;99095.27;1649275;86;20993;-76